In Rescue
 
Open Full Screen Window  High Contrast Mode
Wind Gusting 15 knots
11
May 28, 2020 5:59 PM EDT
Weather Information
Wind Direction
  230 °
Wind Speed
  11 kt (13 mph)
Wind Gust
  15 kt (17 mph)
Altimeter
29.92 in
Visibility
10 SM
Temperature
27° C
81° F
Dewpoint
15° C
59° F
Humidity
48%
1hr Rain Fall
00.00 in.
24hr Rain Fall
00.01 in.
Sky Condition
Clear
VFR

METAR KMRT 282159Z AUTO 23011G15KT 10SM CLR 27/15 A2992 RMK AO1

FAA Disclaimer: The data displayed is for advisory purposes only and is not to be used for flight planning or operations.